createdAt,value
2019-03-24T00:00:27.362Z,102358.25
2019-03-24T00:02:59.785Z,102357.88
2019-03-24T00:05:30.312Z,102351.25
2019-03-24T00:08:00.843Z,102349.55
2019-03-24T00:10:31.750Z,102347.84
2019-03-24T00:13:03.759Z,102346.91
2019-03-24T00:15:34.419Z,102345.67
2019-03-24T00:18:04.956Z,102351.05
2019-03-24T00:20:35.430Z,102349.34
2019-03-24T00:23:05.917Z,102345.00
2019-03-24T00:25:36.735Z,102344.63
2019-03-24T00:28:07.309Z,102350.47
2019-03-24T00:30:38.780Z,102348.20
2019-03-24T00:33:09.285Z,102346.13
2019-03-24T00:35:39.761Z,102347.06
2019-03-24T00:38:10.610Z,102345.56
2019-03-24T00:40:41.340Z,102340.66
2019-03-24T00:43:11.751Z,102338.02
2019-03-24T00:45:42.162Z,102336.31
2019-03-24T00:48:12.641Z,102335.37
2019-03-24T00:50:43.608Z,102333.75
2019-03-24T00:53:14.099Z,102330.52
2019-03-24T00:55:44.585Z,102330.23
2019-03-24T00:58:15.446Z,102327.77
2019-03-24T01:00:47.849Z,102323.45
2019-03-24T01:03:18.760Z,102320.98
2019-03-24T01:05:49.353Z,102322.68
2019-03-24T01:08:19.848Z,102321.36
2019-03-24T01:10:50.404Z,102314.75
2019-03-24T01:13:21.377Z,102315.13
2019-03-24T01:15:51.798Z,102320.04
2019-03-24T01:18:23.082Z,102318.42
2019-03-24T01:20:53.643Z,102314.92
2019-03-24T01:23:24.236Z,102314.92
2019-03-24T01:25:55.046Z,102314.92
2019-03-24T01:28:25.644Z,102312.66
2019-03-24T01:30:56.155Z,102318.34
2019-03-24T01:33:26.678Z,102324.86
2019-03-24T01:35:57.082Z,102315.69
2019-03-24T01:38:27.547Z,102317.02
2019-03-24T01:40:58.391Z,102319.27
2019-03-24T01:43:29.265Z,102319.83
2019-03-24T01:45:59.758Z,102319.06
2019-03-24T01:48:31.494Z,102314.34
2019-03-24T01:51:01.990Z,102322.27
2019-03-24T01:53:32.373Z,102314.81
2019-03-24T01:56:03.192Z,102311.40
2019-03-24T01:58:33.594Z,102309.23
2019-03-24T02:01:04.071Z,102308.84
2019-03-24T02:03:34.554Z,102307.23
2019-03-24T02:06:10.777Z,102305.05
2019-03-24T02:08:41.273Z,102303.44
2019-03-24T02:11:11.819Z,102310.43
2019-03-24T02:13:42.346Z,102302.97
2019-03-24T02:16:13.912Z,102301.64
2019-03-24T02:18:44.487Z,102303.91
2019-03-24T02:21:15.392Z,102300.33
2019-03-24T02:23:45.788Z,102296.36
2019-03-24T02:26:16.297Z,102293.89
2019-03-24T02:28:46.708Z,102297.86
2019-03-24T02:31:17.311Z,102294.36
2019-03-24T02:33:47.820Z,102293.12
2019-03-24T02:36:18.355Z,102286.61
2019-03-24T02:38:48.767Z,102283.28
2019-03-24T02:41:19.273Z,102283.02
2019-03-24T02:43:49.857Z,102290.48
2019-03-24T02:46:24.481Z,102286.22
2019-03-24T02:48:52.638Z,102288.95
2019-03-24T02:51:23.603Z,102281.58
2019-03-24T02:53:54.089Z,102284.78
2019-03-24T02:56:24.605Z,102281.76
2019-03-24T02:58:56.182Z,102284.40
2019-03-24T03:01:26.675Z,102278.73
2019-03-24T03:03:57.606Z,102278.34
2019-03-24T03:06:28.173Z,102274.77
2019-03-24T03:08:58.731Z,102273.06
2019-03-24T03:11:29.221Z,102276.27
2019-03-24T03:14:00.052Z,102279.38
2019-03-24T03:16:38.308Z,102279.49
2019-03-24T03:19:02.872Z,102272.50
2019-03-24T03:21:33.391Z,102276.85
2019-03-24T03:24:03.947Z,102268.62
2019-03-24T03:26:34.614Z,102269.09
2019-03-24T03:29:05.164Z,102268.72
2019-03-24T03:31:35.981Z,102266.07
2019-03-24T03:34:07.082Z,102263.05
2019-03-24T03:36:39.008Z,102262.11
2019-03-24T03:39:09.615Z,102267.39
2019-03-24T03:41:40.210Z,102267.86
2019-03-24T03:44:10.689Z,102265.69
2019-03-24T03:46:51.966Z,102269.73
2019-03-24T03:49:13.440Z,102265.78
2019-03-24T03:51:44.335Z,102264.92
2019-03-24T03:54:15.071Z,102263.98
2019-03-24T03:56:45.581Z,102256.61
2019-03-24T03:59:16.400Z,102255.30
2019-03-24T04:01:46.910Z,102257.55
2019-03-24T04:04:17.462Z,102257.55
2019-03-24T04:06:47.968Z,102251.50
2019-03-24T04:09:18.455Z,102252.06
2019-03-24T04:11:49.250Z,102247.72
2019-03-24T04:14:19.753Z,102250.00
2019-03-24T04:16:50.218Z,102248.22
2019-03-24T04:19:20.667Z,102244.42
2019-03-24T04:21:51.491Z,102240.16
2019-03-24T04:24:22.313Z,102238.63
2019-03-24T04:26:52.800Z,102236.16
2019-03-24T04:29:23.322Z,102234.29
2019-03-24T04:31:53.834Z,102240.33
2019-03-24T04:34:24.627Z,102224.61
2019-03-24T04:36:55.149Z,102231.59
2019-03-24T04:39:25.626Z,102230.98
2019-03-24T04:41:56.135Z,102229.59
2019-03-24T04:44:26.732Z,102234.02
2019-03-24T04:46:57.208Z,102230.91
2019-03-24T04:49:27.725Z,102227.24
2019-03-24T04:51:59.286Z,102229.69
2019-03-24T04:54:29.985Z,102226.95
2019-03-24T04:57:00.576Z,102221.59
2019-03-24T04:59:31.117Z,102221.97
2019-03-24T05:02:01.710Z,102228.48
2019-03-24T05:04:32.319Z,102228.79
2019-03-24T05:07:02.862Z,102227.25
2019-03-24T05:09:33.362Z,102223.92
2019-03-24T05:12:03.862Z,102235.48
2019-03-24T05:14:34.443Z,102231.56
2019-03-24T05:17:04.979Z,102237.55
2019-03-24T05:19:35.425Z,102231.81
2019-03-24T05:22:05.893Z,102236.45
2019-03-24T05:24:36.766Z,102239.39
2019-03-24T05:27:07.594Z,102240.93
2019-03-24T05:29:37.947Z,102236.42
2019-03-24T05:32:08.453Z,102231.14
2019-03-24T05:34:39.271Z,102234.41
2019-03-24T05:37:10.711Z,102234.45
2019-03-24T05:39:41.566Z,102236.63
2019-03-24T05:42:12.379Z,102236.38
2019-03-24T05:44:43.036Z,102236.67
2019-03-24T05:47:13.538Z,102231.70
2019-03-24T05:49:44.058Z,102228.89
2019-03-24T05:52:14.602Z,102232.84
2019-03-24T05:54:45.064Z,102227.83
2019-03-24T05:57:17.532Z,102232.64
2019-03-24T05:59:48.014Z,102222.47
2019-03-24T06:02:18.802Z,102236.05
2019-03-24T06:04:49.314Z,102228.12
2019-03-24T06:07:21.041Z,102228.84
2019-03-24T06:09:51.535Z,102228.62
2019-03-24T06:12:22.052Z,102227.69
2019-03-24T06:14:52.582Z,102234.50
2019-03-24T06:17:23.069Z,102236.89
2019-03-24T06:19:53.587Z,102237.16
2019-03-24T06:22:24.150Z,102237.45
2019-03-24T06:24:54.681Z,102239.08
2019-03-24T06:27:26.017Z,102239.77
2019-03-24T06:29:56.507Z,102236.27
2019-03-24T06:32:27.000Z,102241.94
2019-03-24T06:34:57.564Z,102242.31
2019-03-24T06:37:28.146Z,102240.06
2019-03-24T06:39:58.963Z,102241.94
2019-03-24T06:42:29.944Z,102245.38
2019-03-24T06:45:01.061Z,102247.23
2019-03-24T06:47:31.608Z,102242.67
2019-03-24T06:50:02.577Z,102243.50
2019-03-24T06:52:33.245Z,102241.57
2019-03-24T06:55:04.469Z,102235.14
2019-03-24T06:57:35.065Z,102234.04
2019-03-24T07:00:06.191Z,102228.90
2019-03-24T07:02:37.131Z,102231.56
2019-03-24T07:05:09.183Z,102233.02
2019-03-24T07:07:40.010Z,102228.42
2019-03-24T07:10:11.136Z,102222.47
2019-03-24T07:12:41.825Z,102227.58
2019-03-24T07:15:14.785Z,102229.20
2019-03-24T07:17:45.584Z,102220.34
2019-03-24T07:20:16.142Z,102225.07
2019-03-24T07:22:46.846Z,102223.08
2019-03-24T07:25:17.476Z,102219.50
2019-03-24T07:27:47.996Z,102217.16
2019-03-24T07:30:19.970Z,102214.81
2019-03-24T07:32:50.566Z,102211.07
2019-03-24T07:35:22.172Z,102205.23
2019-03-24T07:37:52.739Z,102205.41
2019-03-24T07:40:23.756Z,102204.68
2019-03-24T07:42:54.247Z,102207.23
2019-03-24T07:45:24.841Z,102208.47
2019-03-24T07:47:56.762Z,102209.41
2019-03-24T07:50:27.600Z,102205.70
2019-03-24T07:52:58.387Z,102199.27
2019-03-24T07:55:28.822Z,102197.69
2019-03-24T07:57:59.712Z,102200.67
2019-03-24T08:00:35.157Z,102203.19
2019-03-24T08:03:05.816Z,102198.58
2019-03-24T08:05:36.372Z,102200.16
2019-03-24T08:08:07.649Z,102193.64
2019-03-24T08:10:38.159Z,102192.41
2019-03-24T08:13:08.565Z,102192.87
2019-03-24T08:15:39.154Z,102183.38
2019-03-24T08:18:09.727Z,102185.64
2019-03-24T08:20:40.218Z,102187.52
2019-03-24T08:23:10.694Z,102184.28
2019-03-24T08:25:41.671Z,102180.61
2019-03-24T08:28:12.729Z,102178.57
2019-03-24T08:30:43.228Z,102174.61
2019-03-24T08:33:15.032Z,102167.07
2019-03-24T08:35:45.542Z,102163.88
2019-03-24T08:38:16.935Z,102169.25
2019-03-24T08:40:47.435Z,102160.80
2019-03-24T08:43:18.015Z,102157.31
2019-03-24T08:45:48.788Z,102156.20
2019-03-24T08:48:19.319Z,102158.45
2019-03-24T08:50:49.745Z,102160.25
2019-03-24T08:53:20.472Z,102165.44
2019-03-24T08:55:50.906Z,102168.55
2019-03-24T08:58:21.922Z,102175.24
2019-03-24T09:00:52.880Z,102176.09
2019-03-24T09:03:23.708Z,102183.93
2019-03-24T09:05:54.573Z,102188.74
2019-03-24T09:08:25.065Z,102189.13
2019-03-24T09:10:55.594Z,102187.62
2019-03-24T09:13:26.631Z,102182.81
2019-03-24T09:15:57.399Z,102180.94
2019-03-24T09:18:27.894Z,102181.11
2019-03-24T09:20:58.446Z,102183.96
2019-03-24T09:23:29.082Z,102183.38
2019-03-24T09:25:59.974Z,102181.70
2019-03-24T09:28:30.489Z,102186.42
2019-03-24T09:31:00.975Z,102184.94
2019-03-24T09:33:32.915Z,102182.47
2019-03-24T09:36:03.494Z,102181.91
2019-03-24T09:38:34.000Z,102183.72
2019-03-24T09:41:05.455Z,102182.50
2019-03-24T09:43:36.302Z,102183.45
2019-03-24T09:46:07.114Z,102189.48
2019-03-24T09:48:37.926Z,102191.84
2019-03-24T09:51:09.399Z,102189.41
2019-03-24T09:53:39.833Z,102189.04
2019-03-24T09:56:10.381Z,102192.05
2019-03-24T09:58:41.848Z,102192.89
2019-03-24T10:01:12.351Z,102197.33
2019-03-24T10:03:42.751Z,102195.73
2019-03-24T10:06:13.376Z,102201.41
2019-03-24T10:08:47.200Z,102200.09
2019-03-24T10:11:17.625Z,102199.41
2019-03-24T10:13:48.281Z,102196.51
2019-03-24T10:16:18.720Z,102190.62
2019-03-24T10:18:49.117Z,102190.05
2019-03-24T10:21:19.713Z,102190.91
2019-03-24T10:23:50.782Z,102191.86
2019-03-24T10:26:21.476Z,102188.52
2019-03-24T10:28:52.121Z,102182.19
2019-03-24T10:31:22.862Z,102183.42
2019-03-24T10:33:53.287Z,102181.94
2019-03-24T10:36:24.049Z,102187.01
2019-03-24T10:38:54.409Z,102183.70
2019-03-24T10:41:25.176Z,102187.39
2019-03-24T10:43:55.835Z,102184.71
2019-03-24T10:46:26.327Z,102186.98
2019-03-24T10:48:57.046Z,102186.50
2019-03-24T10:51:27.504Z,102194.02
2019-03-24T10:53:58.049Z,102182.44
2019-03-24T10:56:28.782Z,102185.17
2019-03-24T10:58:59.250Z,102177.08
2019-03-24T11:01:29.927Z,102178.48
2019-03-24T11:04:00.283Z,102174.23
2019-03-24T11:06:31.147Z,102174.33
2019-03-24T11:09:02.069Z,102164.47
2019-03-24T11:11:35.535Z,102156.56
2019-03-24T11:14:06.059Z,102146.97
2019-03-24T11:16:36.944Z,102142.80
2019-03-24T11:19:07.413Z,102133.41
2019-03-24T11:21:37.916Z,102126.91
2019-03-24T11:24:12.288Z,102122.83
2019-03-24T11:26:42.959Z,102115.38
2019-03-24T11:29:13.408Z,102109.89
2019-03-24T11:31:44.876Z,102111.59
2019-03-24T11:34:16.779Z,102110.92
2019-03-24T11:36:48.016Z,102106.24
2019-03-24T11:39:19.363Z,102110.91
2019-03-24T11:41:49.971Z,102114.80
2019-03-24T11:44:20.642Z,102111.63
2019-03-24T11:46:51.162Z,102103.55
2019-03-24T11:49:21.669Z,102105.84
2019-03-24T11:51:52.185Z,102097.17
2019-03-24T11:54:22.694Z,102094.58
2019-03-24T11:56:53.534Z,102089.30
2019-03-24T11:59:24.060Z,102085.81
2019-03-24T12:01:54.653Z,102084.99
2019-03-24T12:04:25.184Z,102080.17
2019-03-24T12:06:55.693Z,102086.36
2019-03-24T12:09:26.180Z,102091.55
2019-03-24T12:11:57.058Z,102090.48
2019-03-24T12:14:27.567Z,102094.71
2019-03-24T12:16:59.162Z,102086.23
2019-03-24T12:19:29.709Z,102086.14
2019-03-24T12:22:01.671Z,102083.46
2019-03-24T12:24:32.527Z,102088.77
2019-03-24T12:27:06.110Z,102076.42
2019-03-24T12:29:36.703Z,102077.81
2019-03-24T12:32:07.221Z,102071.89
2019-03-24T12:34:38.115Z,102070.56
2019-03-24T12:37:08.600Z,102066.83
2019-03-24T12:39:39.016Z,102076.64
2019-03-24T12:42:10.611Z,102071.55
2019-03-24T12:44:41.549Z,102072.92
2019-03-24T12:47:12.160Z,102071.33
2019-03-24T12:49:42.643Z,102067.83
2019-03-24T12:52:13.342Z,102062.88
2019-03-24T12:54:43.972Z,102065.67
2019-03-24T12:57:14.572Z,102066.69
2019-03-24T12:59:45.465Z,102060.63
2019-03-24T13:02:15.914Z,102060.55
2019-03-24T13:04:46.594Z,102059.70
2019-03-24T13:07:17.097Z,102056.52
2019-03-24T13:09:47.879Z,102064.27
2019-03-24T13:12:18.414Z,102064.48
2019-03-24T13:14:49.503Z,102069.92
2019-03-24T13:17:20.804Z,102073.91
2019-03-24T13:19:51.532Z,102061.20
2019-03-24T13:22:21.907Z,102068.80
2019-03-24T13:24:52.697Z,102063.67
2019-03-24T13:27:23.258Z,102053.92
2019-03-24T13:29:54.245Z,102055.49
2019-03-24T13:32:25.617Z,102053.36
2019-03-24T13:34:56.117Z,102053.48
2019-03-24T13:37:27.384Z,102049.50
2019-03-24T13:39:58.456Z,102051.66
2019-03-24T13:42:29.103Z,102051.16
2019-03-24T13:44:59.540Z,102041.73
2019-03-24T13:47:30.125Z,102039.75
2019-03-24T13:50:00.729Z,102027.75
2019-03-24T13:52:31.277Z,102040.03
2019-03-24T13:55:01.972Z,102034.97
2019-03-24T13:57:32.532Z,102041.92
2019-03-24T14:00:02.988Z,102043.48
2019-03-24T14:02:35.183Z,102046.98
2019-03-24T14:05:06.078Z,102042.38
2019-03-24T14:07:36.665Z,102041.29
2019-03-24T14:10:07.623Z,102036.69
2019-03-24T14:12:39.402Z,102029.21
2019-03-24T14:15:10.354Z,102033.56
2019-03-24T14:17:40.890Z,102034.03
2019-03-24T14:20:12.004Z,102033.30
2019-03-24T14:22:42.553Z,102037.03
2019-03-24T14:25:13.470Z,102034.38
2019-03-24T14:27:43.938Z,102031.46
2019-03-24T14:30:14.762Z,102030.73
2019-03-24T14:32:45.260Z,102034.14
2019-03-24T14:35:16.608Z,102030.77
2019-03-24T14:37:47.580Z,102035.59
2019-03-24T14:40:18.229Z,102035.72
2019-03-24T14:42:48.681Z,102027.75
2019-03-24T14:45:19.094Z,102026.30
2019-03-24T14:47:49.668Z,102027.28
2019-03-24T14:50:20.193Z,102028.48
2019-03-24T14:52:50.642Z,102025.71
2019-03-24T14:55:21.168Z,102034.78
2019-03-24T14:57:51.919Z,102033.45
2019-03-24T15:00:31.030Z,102023.77
2019-03-24T15:03:01.573Z,102017.23
2019-03-24T15:05:32.090Z,102017.84
2019-03-24T15:08:03.315Z,102021.72
2019-03-24T15:10:34.817Z,102029.81
2019-03-24T15:13:06.356Z,102017.11
2019-03-24T15:15:37.359Z,102023.77
2019-03-24T15:18:07.894Z,102018.11
2019-03-24T15:20:38.380Z,102008.78
2019-03-24T15:23:08.895Z,102002.48
2019-03-24T15:25:39.387Z,101994.62
2019-03-24T15:28:09.964Z,102001.16
2019-03-24T15:30:40.445Z,101992.30
2019-03-24T15:33:10.942Z,101991.36
2019-03-24T15:35:41.842Z,101989.09
2019-03-24T15:38:15.083Z,101996.00
2019-03-24T15:40:49.440Z,101995.08
2019-03-24T15:43:19.467Z,101999.34
2019-03-24T15:45:55.924Z,101995.72
2019-03-24T15:48:26.412Z,101993.78
2019-03-24T15:51:00.395Z,101997.05
2019-03-24T15:53:31.022Z,101984.47
2019-03-24T15:56:01.591Z,101984.67
2019-03-24T15:58:32.088Z,101984.62
2019-03-24T16:01:02.908Z,101978.05
2019-03-24T16:03:33.857Z,101977.80
2019-03-24T16:06:05.405Z,101974.78
2019-03-24T16:08:36.030Z,101969.52
2019-03-24T16:11:06.607Z,101970.11
2019-03-24T16:13:37.251Z,101962.25
2019-03-24T16:16:07.734Z,101961.93
2019-03-24T16:18:38.323Z,101962.91
2019-03-24T16:21:09.128Z,101965.25
2019-03-24T16:23:40.073Z,101963.92
2019-03-24T16:26:11.530Z,101965.01
2019-03-24T16:28:42.370Z,101958.00
2019-03-24T16:31:12.924Z,101958.99
2019-03-24T16:33:43.456Z,101964.31
2019-03-24T16:36:14.046Z,101965.05
2019-03-24T16:38:49.026Z,101960.43
2019-03-24T16:41:17.278Z,101958.29
2019-03-24T16:43:47.843Z,101964.31
2019-03-24T16:46:19.452Z,101963.95
2019-03-24T16:48:50.200Z,101970.23
2019-03-24T16:51:21.007Z,101965.04
2019-03-24T16:53:51.608Z,101959.02
2019-03-24T16:56:22.053Z,101958.05
2019-03-24T16:58:53.454Z,101956.95
2019-03-24T17:01:23.990Z,101955.33
2019-03-24T17:03:55.801Z,101958.05
2019-03-24T17:06:27.499Z,101952.63
2019-03-24T17:08:58.498Z,101955.31
2019-03-24T17:11:28.981Z,101945.45
2019-03-24T17:13:59.489Z,101951.08
2019-03-24T17:16:29.975Z,101960.41
2019-03-24T17:19:00.708Z,101952.97
2019-03-24T17:21:32.473Z,101953.55
2019-03-24T17:24:02.915Z,101945.70
2019-03-24T17:26:33.388Z,101947.31
2019-03-24T17:29:04.313Z,101947.35
2019-03-24T17:31:35.095Z,101947.73
2019-03-24T17:34:05.715Z,101948.89
2019-03-24T17:36:36.161Z,101939.91
2019-03-24T17:39:08.376Z,101944.04
2019-03-24T17:41:39.148Z,101946.14
2019-03-24T17:44:09.767Z,101946.34
2019-03-24T17:46:40.281Z,101945.59
2019-03-24T17:49:10.799Z,101947.73
2019-03-24T17:51:41.464Z,101958.89
2019-03-24T17:54:12.125Z,101953.22
2019-03-24T17:56:43.050Z,101949.66
2019-03-24T17:59:14.555Z,101957.45
2019-03-24T18:01:45.157Z,101956.24
2019-03-24T18:04:24.838Z,101956.54
2019-03-24T18:06:51.365Z,101955.55
2019-03-24T18:09:21.862Z,101962.36
2019-03-24T18:11:53.937Z,101953.20
2019-03-24T18:14:24.583Z,101961.50
2019-03-24T18:16:55.115Z,101954.44
2019-03-24T18:19:25.603Z,101957.31
2019-03-24T18:21:55.990Z,101959.87
2019-03-24T18:24:26.494Z,101962.70
2019-03-24T18:26:56.976Z,101971.20
2019-03-24T18:29:27.582Z,101965.64
2019-03-24T18:31:57.983Z,101962.53
2019-03-24T18:34:28.474Z,101965.36
2019-03-24T18:36:59.393Z,101960.08
2019-03-24T18:39:29.824Z,101962.81
2019-03-24T18:42:00.413Z,101970.47
2019-03-24T18:44:31.311Z,101968.98
2019-03-24T18:47:01.955Z,101966.25
2019-03-24T18:49:32.390Z,101967.58
2019-03-24T18:52:02.926Z,101965.03
2019-03-24T18:54:34.594Z,101966.91
2019-03-24T18:57:05.226Z,101964.27
2019-03-24T18:59:35.767Z,101963.27
2019-03-24T19:02:06.552Z,101963.08
2019-03-24T19:04:37.022Z,101964.68
2019-03-24T19:07:07.488Z,101968.08
2019-03-24T19:09:38.025Z,101970.55
2019-03-24T19:12:08.519Z,101969.98
2019-03-24T19:14:40.185Z,101967.53
2019-03-24T19:17:10.793Z,101968.84
2019-03-24T19:19:43.637Z,101969.51
2019-03-24T19:22:14.224Z,101975.56
2019-03-24T19:24:45.067Z,101973.20
2019-03-24T19:27:15.771Z,101974.91
2019-03-24T19:29:46.402Z,101971.88
2019-03-24T19:32:17.059Z,101972.06
2019-03-24T19:34:48.964Z,101969.61
2019-03-24T19:37:20.074Z,101970.67
2019-03-24T19:39:50.960Z,101971.33
2019-03-24T19:42:21.410Z,101970.27
2019-03-24T19:44:52.030Z,101972.84
2019-03-24T19:47:22.631Z,101970.77
2019-03-24T19:49:53.430Z,101971.70
2019-03-24T19:52:23.942Z,101970.09
2019-03-24T19:54:54.453Z,101965.75
2019-03-24T19:57:24.932Z,101968.28
2019-03-24T19:59:55.369Z,101963.68
2019-03-24T20:02:25.789Z,101961.04
2019-03-24T20:04:56.252Z,101963.09
2019-03-24T20:07:26.744Z,101961.40
2019-03-24T20:09:57.262Z,101958.00
2019-03-24T20:12:27.832Z,101957.15
2019-03-24T20:14:58.349Z,101959.59
2019-03-24T20:17:28.895Z,101956.69
2019-03-24T20:19:59.677Z,101957.16
2019-03-24T20:22:30.171Z,101956.31
2019-03-24T20:25:01.415Z,101957.72
2019-03-24T20:27:31.834Z,101954.31
2019-03-24T20:30:02.387Z,101962.41
2019-03-24T20:32:34.430Z,101960.33
2019-03-24T20:35:06.010Z,101959.56
2019-03-24T20:37:36.735Z,101959.86
2019-03-24T20:40:07.927Z,101961.81
2019-03-24T20:42:38.657Z,101956.51
2019-03-24T20:45:13.066Z,101961.48
2019-03-24T20:47:43.659Z,101959.06
2019-03-24T20:50:14.502Z,101963.16
2019-03-24T20:52:45.031Z,101957.97
2019-03-24T20:55:15.630Z,101958.31
2019-03-24T20:57:46.210Z,101955.11
2019-03-24T21:00:18.725Z,101954.52
2019-03-24T21:02:49.396Z,101954.97
2019-03-24T21:05:20.142Z,101954.20
2019-03-24T21:07:51.096Z,101964.06
2019-03-24T21:10:24.028Z,101963.98
2019-03-24T21:12:53.757Z,101962.92
2019-03-24T21:15:24.353Z,101969.76
2019-03-24T21:17:55.465Z,101973.44
2019-03-24T21:20:25.869Z,101970.89
2019-03-24T21:22:57.743Z,101971.98
2019-03-24T21:25:28.281Z,101957.06
2019-03-24T21:27:59.316Z,101956.02
2019-03-24T21:30:38.212Z,101953.86
2019-03-24T21:33:08.803Z,101954.11
2019-03-24T21:35:39.754Z,101950.84
2019-03-24T21:38:10.635Z,101946.20
2019-03-24T21:40:41.479Z,101943.27
2019-03-24T21:43:12.249Z,101946.20
2019-03-24T21:45:42.756Z,101939.63
2019-03-24T21:48:13.209Z,101938.94
2019-03-24T21:50:43.735Z,101932.44
2019-03-24T21:53:14.127Z,101932.44
2019-03-24T21:55:44.920Z,101932.24
2019-03-24T21:58:15.431Z,101930.62
2019-03-24T22:00:46.267Z,101916.31
2019-03-24T22:03:16.691Z,101924.67
2019-03-24T22:05:47.229Z,101920.89
2019-03-24T22:08:17.726Z,101924.84
2019-03-24T22:10:48.256Z,101919.19
2019-03-24T22:13:18.851Z,101924.27
2019-03-24T22:15:49.628Z,101923.03
2019-03-24T22:18:19.950Z,101916.14
2019-03-24T22:20:50.487Z,101922.50
2019-03-24T22:23:20.997Z,101921.34
2019-03-24T22:25:51.581Z,101919.64
2019-03-24T22:28:22.071Z,101926.80
2019-03-24T22:30:52.606Z,101926.58
2019-03-24T22:33:23.143Z,101922.18
2019-03-24T22:35:53.673Z,101918.78
2019-03-24T22:38:24.156Z,101912.70
2019-03-24T22:40:55.435Z,101904.50
2019-03-24T22:43:26.164Z,101903.34
2019-03-24T22:45:56.733Z,101903.42
2019-03-24T22:48:27.547Z,101897.93
2019-03-24T22:50:58.093Z,101902.34
2019-03-24T22:53:28.498Z,101887.95
2019-03-24T22:55:59.052Z,101897.35
2019-03-24T22:58:29.811Z,101891.02
2019-03-24T23:01:02.736Z,101883.89
2019-03-24T23:03:34.922Z,101883.81
2019-03-24T23:06:07.067Z,101883.12
2019-03-24T23:08:37.512Z,101878.87
2019-03-24T23:11:08.102Z,101878.95
2019-03-24T23:13:38.593Z,101872.14
2019-03-24T23:16:09.144Z,101867.45
2019-03-24T23:18:39.725Z,101868.66
2019-03-24T23:21:11.949Z,101862.55
2019-03-24T23:23:42.442Z,101859.73
2019-03-24T23:26:13.731Z,101858.73
2019-03-24T23:28:44.762Z,101851.84
2019-03-24T23:31:15.236Z,101853.08
2019-03-24T23:33:46.222Z,101856.64
2019-03-24T23:36:16.680Z,101854.82
2019-03-24T23:38:47.150Z,101848.86
2019-03-24T23:41:17.775Z,101842.76
2019-03-24T23:43:48.362Z,101841.05
2019-03-24T23:46:19.174Z,101837.80
2019-03-24T23:48:49.677Z,101831.23
2019-03-24T23:51:20.178Z,101825.97
2019-03-24T23:53:50.613Z,101829.69
2019-03-24T23:56:21.190Z,101818.40
2019-03-24T23:58:52.155Z,101815.77
